createdAt,value
2023-05-22T00:01:04.944Z,102130.99
2023-05-22T00:03:33.505Z,102131.85
2023-05-22T00:06:01.690Z,102129.80
2023-05-22T00:08:30.057Z,102126.79
2023-05-22T00:10:58.252Z,102134.13
2023-05-22T00:13:26.435Z,102129.08
2023-05-22T00:15:54.812Z,102129.96
2023-05-22T00:18:23.004Z,102126.88
2023-05-22T00:20:52.000Z,102126.41
2023-05-22T00:23:22.075Z,102126.15
2023-05-22T00:25:50.894Z,102118.34
2023-05-22T00:28:19.072Z,102121.03
2023-05-22T00:30:47.249Z,102117.17
2023-05-22T00:33:16.199Z,102106.17
2023-05-22T00:35:44.440Z,102116.55
2023-05-22T00:38:29.570Z,102115.02
2023-05-22T00:40:58.370Z,102108.16
2023-05-22T00:43:27.606Z,102112.84
2023-05-22T00:45:56.157Z,102112.86
2023-05-22T00:48:25.124Z,102117.67
2023-05-22T00:50:58.104Z,102117.07
2023-05-22T00:53:28.761Z,102114.27
2023-05-22T00:55:58.875Z,102116.35
2023-05-22T00:58:27.749Z,102113.66
2023-05-22T01:00:56.717Z,102112.91
2023-05-22T01:03:28.792Z,102105.65
2023-05-22T01:05:57.801Z,102104.61
2023-05-22T01:08:26.183Z,102103.33
2023-05-22T01:11:08.360Z,102110.99
2023-05-22T01:13:45.450Z,102110.86
2023-05-22T01:16:30.038Z,102108.30
2023-05-22T01:19:35.781Z,102113.20
2023-05-22T01:22:21.800Z,102109.04
2023-05-22T01:25:12.052Z,102109.21
2023-05-22T01:28:01.656Z,102110.20
2023-05-22T01:30:56.713Z,102109.25
2023-05-22T01:33:26.649Z,102113.18
2023-05-22T01:35:59.888Z,102114.64
2023-05-22T01:38:29.252Z,102115.61
2023-05-22T01:40:58.492Z,102111.42
2023-05-22T01:43:27.757Z,102115.52
2023-05-22T01:45:56.114Z,102112.75
2023-05-22T01:48:24.270Z,102112.61
2023-05-22T01:50:55.011Z,102111.61
2023-05-22T01:53:46.853Z,102113.54
2023-05-22T01:56:19.435Z,102114.15
2023-05-22T01:59:13.723Z,102113.80
2023-05-22T02:01:42.908Z,102112.73
2023-05-22T02:04:13.690Z,102102.80
2023-05-22T02:06:44.864Z,102112.00
2023-05-22T02:09:17.283Z,102117.80
2023-05-22T02:11:48.082Z,102117.89
2023-05-22T02:14:17.989Z,102118.10
2023-05-22T02:16:47.870Z,102117.31
2023-05-22T02:19:16.235Z,102117.70
2023-05-22T02:21:44.862Z,102111.56
2023-05-22T02:24:13.572Z,102123.65
2023-05-22T02:26:43.042Z,102123.36
2023-05-22T02:29:13.056Z,102122.38
2023-05-22T02:31:41.359Z,102125.77
2023-05-22T02:34:09.504Z,102124.99
2023-05-22T02:36:37.998Z,102123.96
2023-05-22T02:39:06.208Z,102121.29
2023-05-22T02:41:34.552Z,102116.46
2023-05-22T02:44:02.751Z,102122.80
2023-05-22T02:46:31.084Z,102124.77
2023-05-22T02:48:59.302Z,102119.64
2023-05-22T02:51:27.621Z,102118.25
2023-05-22T02:53:55.859Z,102117.92
2023-05-22T02:56:24.365Z,102115.45
2023-05-22T02:58:52.587Z,102111.63
2023-05-22T03:01:22.277Z,102110.08
2023-05-22T03:03:50.794Z,102111.80
2023-05-22T03:06:19.004Z,102107.60
2023-05-22T03:08:48.783Z,102108.42
2023-05-22T03:11:16.989Z,102109.38
2023-05-22T03:13:45.248Z,102109.36
2023-05-22T03:16:13.583Z,102106.41
2023-05-22T03:18:46.083Z,102099.86
2023-05-22T03:21:14.656Z,102098.47
2023-05-22T03:23:45.088Z,102100.13
2023-05-22T03:26:13.913Z,102101.77
2023-05-22T03:28:42.095Z,102097.30
2023-05-22T03:31:10.275Z,102095.58
2023-05-22T03:33:51.241Z,102095.67
2023-05-22T03:36:21.488Z,102091.56
2023-05-22T03:38:49.758Z,102081.55
2023-05-22T03:41:18.487Z,102088.61
2023-05-22T03:43:46.897Z,102091.36
2023-05-22T03:46:15.068Z,102090.29
2023-05-22T03:48:43.331Z,102086.52
2023-05-22T03:51:14.063Z,102083.83
2023-05-22T03:53:42.270Z,102083.45
2023-05-22T03:56:10.498Z,102087.55
2023-05-22T03:58:38.865Z,102083.91
2023-05-22T04:01:10.233Z,102089.41
2023-05-22T04:03:38.457Z,102083.42
2023-05-22T04:06:07.702Z,102084.20
2023-05-22T04:08:36.126Z,102085.63
2023-05-22T04:11:05.534Z,102078.85
2023-05-22T04:13:33.739Z,102085.30
2023-05-22T04:16:02.236Z,102082.62
2023-05-22T04:18:30.467Z,102079.19
2023-05-22T04:20:58.934Z,102068.50
2023-05-22T04:23:27.061Z,102063.19
2023-05-22T04:25:55.996Z,102069.61
2023-05-22T04:28:24.151Z,102077.86
2023-05-22T04:30:52.602Z,102069.52
2023-05-22T04:33:21.725Z,102073.90
2023-05-22T04:35:49.952Z,102070.09
2023-05-22T04:38:21.259Z,102067.34
2023-05-22T04:40:50.516Z,102067.52
2023-05-22T04:43:19.085Z,102069.88
2023-05-22T04:45:47.363Z,102051.02
2023-05-22T04:48:15.602Z,102065.92
2023-05-22T04:50:46.470Z,102063.64
2023-05-22T04:53:14.957Z,102061.55
2023-05-22T04:55:43.400Z,102058.06
2023-05-22T04:58:12.095Z,102056.98
2023-05-22T05:00:40.782Z,102057.55
2023-05-22T05:03:11.920Z,102056.95
2023-05-22T05:05:40.387Z,102055.85
2023-05-22T05:08:08.598Z,102058.74
2023-05-22T05:10:36.911Z,102047.89
2023-05-22T05:13:05.417Z,102057.59
2023-05-22T05:15:37.263Z,102057.67
2023-05-22T05:18:05.574Z,102053.93
2023-05-22T05:20:33.749Z,102046.20
2023-05-22T05:23:02.044Z,102050.25
2023-05-22T05:25:30.200Z,102048.84
2023-05-22T05:27:59.088Z,102046.86
2023-05-22T05:30:30.125Z,102045.09
2023-05-22T05:33:13.285Z,102046.81
2023-05-22T05:35:58.005Z,102047.73
2023-05-22T05:38:26.923Z,102043.80
2023-05-22T05:40:56.309Z,102041.95
2023-05-22T05:43:25.663Z,102040.48
2023-05-22T05:45:57.305Z,102041.47
2023-05-22T05:48:25.568Z,102042.83
2023-05-22T05:50:53.947Z,102046.67
2023-05-22T05:53:23.023Z,102043.80
2023-05-22T05:55:57.055Z,102045.41
2023-05-22T05:58:25.215Z,102044.62
2023-05-22T06:01:05.676Z,102032.58
2023-05-22T06:03:34.078Z,102041.20
2023-05-22T06:06:26.336Z,102042.29
2023-05-22T06:09:12.773Z,102043.36
2023-05-22T06:11:59.278Z,102039.79
2023-05-22T06:14:27.502Z,102039.80
2023-05-22T06:16:56.474Z,102036.88
2023-05-22T06:19:24.875Z,102011.71
2023-05-22T06:21:53.069Z,102028.69
2023-05-22T06:24:21.610Z,102033.59
2023-05-22T06:26:49.765Z,102028.88
2023-05-22T06:29:18.125Z,102030.45
2023-05-22T06:31:47.020Z,102022.95
2023-05-22T06:34:17.091Z,102025.38
2023-05-22T06:36:46.683Z,102023.00
2023-05-22T06:39:15.163Z,102027.94
2023-05-22T06:42:07.960Z,102028.67
2023-05-22T06:44:55.076Z,102023.30
2023-05-22T06:47:25.496Z,102019.70
2023-05-22T06:49:53.707Z,102020.77
2023-05-22T06:52:22.743Z,102019.73
2023-05-22T06:54:51.047Z,102016.97
2023-05-22T06:57:19.326Z,102009.84
2023-05-22T06:59:47.773Z,102007.98
2023-05-22T07:02:41.673Z,102011.10
2023-05-22T07:05:25.136Z,102011.45
2023-05-22T07:07:58.773Z,102001.80
2023-05-22T07:10:28.000Z,102003.58
2023-05-22T07:12:58.310Z,101992.48
2023-05-22T07:15:27.004Z,102002.61
2023-05-22T07:17:57.207Z,102001.66
2023-05-22T07:20:26.420Z,102004.86
2023-05-22T07:23:14.998Z,102005.24
2023-05-22T07:25:43.737Z,102001.23
2023-05-22T07:28:12.497Z,102002.98
2023-05-22T07:30:50.328Z,102001.59
2023-05-22T07:33:18.512Z,101999.08
2023-05-22T07:35:46.908Z,101997.16
2023-05-22T07:38:15.110Z,101997.74
2023-05-22T07:40:48.432Z,101994.20
2023-05-22T07:43:16.626Z,101989.76
2023-05-22T07:45:45.001Z,101991.92
2023-05-22T07:48:14.683Z,101992.25
2023-05-22T07:50:45.518Z,101994.39
2023-05-22T07:53:13.797Z,101994.67
2023-05-22T07:55:42.742Z,101991.86
2023-05-22T07:58:11.557Z,101991.89
2023-05-22T08:00:42.080Z,101989.79
2023-05-22T08:03:10.372Z,101986.66
2023-05-22T08:05:38.616Z,101989.68
2023-05-22T08:08:06.981Z,101987.63
2023-05-22T08:10:52.183Z,101989.16
2023-05-22T08:13:23.447Z,101983.67
2023-05-22T08:15:52.038Z,101987.02
2023-05-22T08:18:29.978Z,101986.92
2023-05-22T08:21:00.368Z,101970.48
2023-05-22T08:23:30.028Z,101983.78
2023-05-22T08:25:58.280Z,101987.33
2023-05-22T08:28:26.486Z,101986.05
2023-05-22T08:30:55.369Z,101985.76
2023-05-22T08:33:23.595Z,101981.80
2023-05-22T08:35:51.826Z,101981.75
2023-05-22T08:38:20.080Z,101981.09
2023-05-22T08:40:51.817Z,101977.80
2023-05-22T08:43:21.431Z,101978.23
2023-05-22T08:45:57.949Z,101975.92
2023-05-22T08:48:31.953Z,101970.11
2023-05-22T08:51:04.914Z,101976.42
2023-05-22T08:53:37.434Z,101974.40
2023-05-22T08:56:07.300Z,101977.54
2023-05-22T08:58:37.204Z,101979.16
2023-05-22T09:01:08.950Z,101974.52
2023-05-22T09:03:37.802Z,101969.80
2023-05-22T09:06:10.583Z,101966.14
2023-05-22T09:08:39.168Z,101964.12
2023-05-22T09:11:07.643Z,101961.80
2023-05-22T09:13:39.359Z,101955.66
2023-05-22T09:16:12.384Z,101955.09
2023-05-22T09:18:42.437Z,101953.91
2023-05-22T09:21:28.882Z,101948.40
2023-05-22T09:24:01.874Z,101950.83
2023-05-22T09:26:30.666Z,101943.88
2023-05-22T09:29:01.986Z,101945.02
2023-05-22T09:31:30.337Z,101941.59
2023-05-22T09:33:59.688Z,101931.85
2023-05-22T09:36:35.372Z,101932.19
2023-05-22T09:39:04.829Z,101930.14
2023-05-22T09:41:39.892Z,101922.70
2023-05-22T09:44:16.274Z,101922.82
2023-05-22T09:46:46.635Z,101916.79
2023-05-22T09:49:16.712Z,101918.36
2023-05-22T09:51:48.461Z,101921.50
2023-05-22T09:54:19.347Z,101918.91
2023-05-22T09:56:53.769Z,101907.73
2023-05-22T09:59:27.292Z,101915.77
2023-05-22T10:01:55.761Z,101907.31
2023-05-22T10:04:24.337Z,101906.94
2023-05-22T10:06:57.709Z,101902.76
2023-05-22T10:09:33.801Z,101906.19
2023-05-22T10:12:07.362Z,101902.00
2023-05-22T10:14:36.752Z,101899.52
2023-05-22T10:17:07.096Z,101900.20
2023-05-22T10:19:38.694Z,101895.27
2023-05-22T10:22:15.152Z,101894.99
2023-05-22T10:24:43.967Z,101888.86
2023-05-22T10:27:12.361Z,101887.55
2023-05-22T10:29:51.077Z,101873.25
2023-05-22T10:32:33.408Z,101884.79
2023-05-22T10:35:21.977Z,101876.38
2023-05-22T10:38:22.704Z,101881.45
2023-05-22T10:40:51.647Z,101879.29
2023-05-22T10:43:21.817Z,101876.67
2023-05-22T10:45:50.263Z,101873.20
2023-05-22T10:48:22.881Z,101874.66
2023-05-22T10:50:54.515Z,101873.82
2023-05-22T10:53:25.825Z,101859.98
2023-05-22T10:55:55.413Z,101868.89
2023-05-22T10:58:37.870Z,101863.65
2023-05-22T11:01:16.325Z,101862.89
2023-05-22T11:03:58.770Z,101862.64
2023-05-22T11:06:35.091Z,101857.63
2023-05-22T11:09:29.402Z,101853.70
2023-05-22T11:12:25.867Z,101853.99
2023-05-22T11:15:06.248Z,101848.59
2023-05-22T11:17:42.569Z,101843.48
2023-05-22T11:20:25.754Z,101839.05
2023-05-22T11:23:05.549Z,101834.34
2023-05-22T11:25:36.643Z,101836.72
2023-05-22T11:28:06.222Z,101837.20
2023-05-22T11:30:35.202Z,101841.91
2023-05-22T11:33:05.032Z,101835.55
2023-05-22T11:35:33.495Z,101818.99
2023-05-22T11:38:06.827Z,101832.45
2023-05-22T11:40:35.104Z,101834.95
2023-05-22T11:43:04.815Z,101836.95
2023-05-22T11:45:37.682Z,101836.39
2023-05-22T11:48:08.329Z,101833.89
2023-05-22T11:50:42.440Z,101831.16
2023-05-22T11:53:11.362Z,101829.51
2023-05-22T11:55:39.746Z,101825.14
2023-05-22T11:58:08.070Z,101824.48
2023-05-22T12:00:36.346Z,101820.72
2023-05-22T12:03:06.735Z,101817.19
2023-05-22T12:05:35.132Z,101812.95
2023-05-22T12:08:03.436Z,101810.15
2023-05-22T12:10:31.992Z,101809.35
2023-05-22T12:13:00.271Z,101804.48
2023-05-22T12:15:28.394Z,101806.63
2023-05-22T12:17:57.276Z,101800.71
2023-05-22T12:20:30.329Z,101801.14
2023-05-22T12:22:59.968Z,101798.27
2023-05-22T12:25:37.321Z,101803.48
2023-05-22T12:28:09.055Z,101799.64
2023-05-22T12:30:42.013Z,101796.20
2023-05-22T12:33:15.274Z,101796.63
2023-05-22T12:35:43.627Z,101794.67
2023-05-22T12:38:13.699Z,101791.52
2023-05-22T12:40:41.948Z,101793.52
2023-05-22T12:43:10.377Z,101787.04
2023-05-22T12:45:41.439Z,101784.11
2023-05-22T12:48:09.770Z,101779.20
2023-05-22T12:50:38.231Z,101774.88
2023-05-22T12:53:06.729Z,101772.23
2023-05-22T12:55:35.953Z,101776.22
2023-05-22T12:58:04.535Z,101771.98
2023-05-22T13:00:33.545Z,101768.64
2023-05-22T13:03:02.408Z,101769.52
2023-05-22T13:05:30.752Z,101770.56
2023-05-22T13:07:58.950Z,101768.80
2023-05-22T13:10:27.118Z,101767.88
2023-05-22T13:12:55.315Z,101768.55
2023-05-22T13:15:23.517Z,101767.33
2023-05-22T13:17:52.220Z,101769.35
2023-05-22T13:20:20.530Z,101764.78
2023-05-22T13:22:48.778Z,101762.05
2023-05-22T13:25:19.175Z,101760.13
2023-05-22T13:27:47.665Z,101735.18
2023-05-22T13:30:16.213Z,101747.61
2023-05-22T13:32:44.506Z,101747.58
2023-05-22T13:35:13.018Z,101746.60
2023-05-22T13:37:41.556Z,101750.02
2023-05-22T13:40:12.373Z,101746.63
2023-05-22T13:42:42.117Z,101744.05
2023-05-22T13:45:11.474Z,101736.89
2023-05-22T13:47:39.655Z,101740.04
2023-05-22T13:50:08.558Z,101741.13
2023-05-22T13:52:37.052Z,101740.13
2023-05-22T13:55:05.904Z,101737.72
2023-05-22T13:57:34.723Z,101741.06
2023-05-22T14:00:04.075Z,101739.88
2023-05-22T14:02:32.736Z,101742.42
2023-05-22T14:05:01.001Z,101745.73
2023-05-22T14:07:29.196Z,101739.89
2023-05-22T14:09:58.608Z,101738.51
2023-05-22T14:12:28.672Z,101741.54
2023-05-22T14:14:56.878Z,101740.17
2023-05-22T14:17:25.117Z,101748.09
2023-05-22T14:19:53.358Z,101728.73
2023-05-22T14:22:21.623Z,101734.62
2023-05-22T14:24:49.997Z,101734.39
2023-05-22T14:27:18.172Z,101737.90
2023-05-22T14:29:47.298Z,101733.65
2023-05-22T14:32:15.630Z,101734.46
2023-05-22T14:34:43.839Z,101739.61
2023-05-22T14:37:12.260Z,101736.58
2023-05-22T14:39:40.516Z,101735.09
2023-05-22T14:42:09.207Z,101727.65
2023-05-22T14:44:37.469Z,101728.59
2023-05-22T14:47:06.440Z,101731.14
2023-05-22T14:49:34.674Z,101733.39
2023-05-22T14:52:02.827Z,101727.56
2023-05-22T14:54:31.032Z,101725.88
2023-05-22T14:56:59.282Z,101727.73
2023-05-22T14:59:27.395Z,101722.80
2023-05-22T15:01:55.653Z,101719.63
2023-05-22T15:04:24.897Z,101710.13
2023-05-22T15:06:53.087Z,101712.70
2023-05-22T15:09:21.374Z,101709.50
2023-05-22T15:11:51.153Z,101709.17
2023-05-22T15:14:20.172Z,101706.69
2023-05-22T15:16:50.108Z,101697.14
2023-05-22T15:19:18.435Z,101699.76
2023-05-22T15:21:46.631Z,101697.14
2023-05-22T15:24:14.849Z,101697.02
2023-05-22T15:26:43.128Z,101697.04
2023-05-22T15:29:11.684Z,101690.31
2023-05-22T15:31:39.919Z,101691.63
2023-05-22T15:34:08.155Z,101650.55
2023-05-22T15:36:40.528Z,101687.52
2023-05-22T15:39:08.790Z,101679.59
2023-05-22T15:41:37.093Z,101677.09
2023-05-22T15:44:05.352Z,101679.66
2023-05-22T15:46:33.878Z,101672.95
2023-05-22T15:49:02.306Z,101676.27
2023-05-22T15:51:31.209Z,101679.29
2023-05-22T15:53:59.364Z,101682.86
2023-05-22T15:56:27.571Z,101679.07
2023-05-22T15:58:56.206Z,101675.00
2023-05-22T16:01:24.452Z,101672.20
2023-05-22T16:03:52.847Z,101671.24
2023-05-22T16:06:23.341Z,101669.86
2023-05-22T16:08:51.470Z,101670.05
2023-05-22T16:11:19.683Z,101670.26
2023-05-22T16:13:48.065Z,101667.93
2023-05-22T16:16:17.560Z,101667.48
2023-05-22T16:18:45.792Z,101665.43
2023-05-22T16:21:14.108Z,101663.77
2023-05-22T16:23:42.251Z,101660.95
2023-05-22T16:26:10.616Z,101663.59
2023-05-22T16:28:38.840Z,101659.23
2023-05-22T16:31:07.065Z,101659.08
2023-05-22T16:33:37.677Z,101659.06
2023-05-22T16:36:06.314Z,101661.44
2023-05-22T16:38:34.503Z,101639.40
2023-05-22T16:41:02.726Z,101662.14
2023-05-22T16:43:31.424Z,101661.52
2023-05-22T16:45:59.650Z,101662.35
2023-05-22T16:48:27.820Z,101664.36
2023-05-22T16:50:56.063Z,101662.30
2023-05-22T16:53:24.212Z,101661.40
2023-05-22T16:55:52.314Z,101663.96
2023-05-22T16:58:21.845Z,101664.30
2023-05-22T17:00:50.798Z,101660.15
2023-05-22T17:03:19.466Z,101657.98
2023-05-22T17:05:47.911Z,101662.02
2023-05-22T17:08:16.258Z,101662.57
2023-05-22T17:10:44.399Z,101662.48
2023-05-22T17:13:19.760Z,101660.17
2023-05-22T17:15:51.563Z,101648.00
2023-05-22T17:18:20.976Z,101660.79
2023-05-22T17:20:50.666Z,101661.77
2023-05-22T17:23:18.825Z,101660.13
2023-05-22T17:25:47.061Z,101653.48
2023-05-22T17:28:15.655Z,101647.31
2023-05-22T17:30:44.454Z,101647.23
2023-05-22T17:33:14.174Z,101646.27
2023-05-22T17:35:42.543Z,101644.50
2023-05-22T17:38:10.711Z,101646.02
2023-05-22T17:40:44.724Z,101648.20
2023-05-22T17:43:14.548Z,101651.81
2023-05-22T17:45:44.652Z,101637.76
2023-05-22T17:48:14.578Z,101648.29
2023-05-22T17:50:43.144Z,101648.70
2023-05-22T17:53:13.522Z,101644.65
2023-05-22T17:55:41.848Z,101642.84
2023-05-22T17:58:10.133Z,101644.90
2023-05-22T18:00:38.616Z,101641.73
2023-05-22T18:03:07.838Z,101638.98
2023-05-22T18:05:36.262Z,101637.23
2023-05-22T18:08:04.453Z,101640.95
2023-05-22T18:10:32.716Z,101642.52
2023-05-22T18:13:00.866Z,101642.27
2023-05-22T18:15:29.071Z,101642.09
2023-05-22T18:17:57.201Z,101640.85
2023-05-22T18:20:25.522Z,101639.69
2023-05-22T18:22:53.930Z,101633.44
2023-05-22T18:25:22.060Z,101633.15
2023-05-22T18:27:50.267Z,101637.41
2023-05-22T18:30:18.468Z,101637.06
2023-05-22T18:32:46.669Z,101637.69
2023-05-22T18:35:15.223Z,101637.77
2023-05-22T18:37:43.486Z,101634.82
2023-05-22T18:40:12.609Z,101636.30
2023-05-22T18:42:40.991Z,101635.29
2023-05-22T18:45:11.453Z,101634.10
2023-05-22T18:47:39.950Z,101633.15
2023-05-22T18:50:09.208Z,101634.73
2023-05-22T18:52:38.013Z,101635.98
2023-05-22T18:55:07.330Z,101637.86
2023-05-22T18:57:36.428Z,101636.67
2023-05-22T19:00:08.017Z,101632.95
2023-05-22T19:02:36.761Z,101634.92
2023-05-22T19:05:05.624Z,101633.70
2023-05-22T19:07:33.754Z,101628.98
2023-05-22T19:10:02.348Z,101632.60
2023-05-22T19:12:31.852Z,101630.79
2023-05-22T19:15:00.213Z,101632.16
2023-05-22T19:17:28.462Z,101633.13
2023-05-22T19:19:56.619Z,101632.64
2023-05-22T19:22:24.819Z,101631.97
2023-05-22T19:24:53.318Z,101633.51
2023-05-22T19:27:21.468Z,101634.85
2023-05-22T19:29:49.636Z,101634.44
2023-05-22T19:32:17.950Z,101633.66
2023-05-22T19:34:46.598Z,101634.66
2023-05-22T19:37:14.724Z,101633.30
2023-05-22T19:39:42.892Z,101632.67
2023-05-22T19:42:12.363Z,101625.61
2023-05-22T19:44:40.583Z,101628.92
2023-05-22T19:47:08.702Z,101628.84
2023-05-22T19:49:37.343Z,101622.96
2023-05-22T19:52:06.102Z,101624.50
2023-05-22T19:54:35.315Z,101614.59
2023-05-22T19:57:03.599Z,101621.02
2023-05-22T19:59:32.661Z,101619.16
2023-05-22T20:02:01.781Z,101616.51
2023-05-22T20:04:30.510Z,101601.90
2023-05-22T20:06:59.619Z,101616.14
2023-05-22T20:09:28.023Z,101615.86
2023-05-22T20:11:56.186Z,101615.19
2023-05-22T20:14:24.303Z,101617.01
2023-05-22T20:16:52.674Z,101611.23
2023-05-22T20:19:21.694Z,101613.05
2023-05-22T20:21:50.900Z,101610.21
2023-05-22T20:24:25.335Z,101609.23
2023-05-22T20:26:53.697Z,101608.28
2023-05-22T20:29:22.300Z,101608.55
2023-05-22T20:31:54.897Z,101603.78
2023-05-22T20:34:23.600Z,101604.77
2023-05-22T20:36:53.122Z,101605.52
2023-05-22T20:39:22.385Z,101601.84
2023-05-22T20:41:50.495Z,101599.33
2023-05-22T20:44:19.133Z,101601.55
2023-05-22T20:46:47.265Z,101604.83
2023-05-22T20:49:17.642Z,101603.15
2023-05-22T20:51:46.105Z,101599.85
2023-05-22T20:54:14.256Z,101602.14
2023-05-22T20:56:42.692Z,101603.17
2023-05-22T20:59:10.917Z,101602.86
2023-05-22T21:01:40.007Z,101596.70
2023-05-22T21:04:08.199Z,101595.20
2023-05-22T21:06:36.367Z,101595.81
2023-05-22T21:09:04.502Z,101598.13
2023-05-22T21:11:32.620Z,101596.61
2023-05-22T21:14:01.036Z,101593.75
2023-05-22T21:16:29.228Z,101588.75
2023-05-22T21:18:57.457Z,101589.50
2023-05-22T21:21:25.812Z,101589.51
2023-05-22T21:23:54.145Z,101590.74
2023-05-22T21:26:23.123Z,101586.93
2023-05-22T21:28:51.341Z,101586.97
2023-05-22T21:31:19.710Z,101586.31
2023-05-22T21:33:47.811Z,101586.87
2023-05-22T21:36:15.948Z,101582.10
2023-05-22T21:38:44.905Z,101582.08
2023-05-22T21:41:13.485Z,101579.88
2023-05-22T21:43:41.767Z,101574.05
2023-05-22T21:46:10.764Z,101574.69
2023-05-22T21:48:41.130Z,101575.63
2023-05-22T21:51:15.346Z,101573.67
2023-05-22T21:53:45.512Z,101574.40
2023-05-22T21:56:14.190Z,101575.96
2023-05-22T21:58:43.668Z,101577.31
2023-05-22T22:01:11.990Z,101579.30
2023-05-22T22:03:40.429Z,101582.73
2023-05-22T22:06:10.070Z,101566.04
2023-05-22T22:08:39.085Z,101582.48
2023-05-22T22:11:07.464Z,101581.48
2023-05-22T22:13:36.476Z,101576.70
2023-05-22T22:16:04.921Z,101572.66
2023-05-22T22:18:33.803Z,101573.86
2023-05-22T22:21:04.692Z,101568.30
2023-05-22T22:23:34.004Z,101567.34
2023-05-22T22:26:02.173Z,101567.64
2023-05-22T22:28:30.680Z,101564.52
2023-05-22T22:30:59.140Z,101567.47
2023-05-22T22:33:27.349Z,101563.11
2023-05-22T22:35:56.499Z,101561.19
2023-05-22T22:38:24.758Z,101556.80
2023-05-22T22:40:52.934Z,101556.52
2023-05-22T22:43:21.595Z,101554.73
2023-05-22T22:45:49.707Z,101551.67
2023-05-22T22:48:22.465Z,101552.84
2023-05-22T22:50:52.632Z,101535.54
2023-05-22T22:53:20.993Z,101536.17
2023-05-22T22:55:55.211Z,101547.64
2023-05-22T22:58:23.440Z,101545.38
2023-05-22T23:00:51.715Z,101542.98
2023-05-22T23:03:20.155Z,101540.90
2023-05-22T23:05:48.611Z,101540.61
2023-05-22T23:08:16.902Z,101536.88
2023-05-22T23:10:45.160Z,101540.14
2023-05-22T23:13:13.356Z,101541.95
2023-05-22T23:15:41.922Z,101538.90
2023-05-22T23:18:11.046Z,101537.48
2023-05-22T23:20:39.250Z,101539.09
2023-05-22T23:23:07.394Z,101537.51
2023-05-22T23:25:35.558Z,101538.67
2023-05-22T23:28:03.734Z,101530.19
2023-05-22T23:30:31.920Z,101525.42
2023-05-22T23:33:02.550Z,101529.02
2023-05-22T23:35:31.212Z,101522.35
2023-05-22T23:37:59.387Z,101521.85
2023-05-22T23:40:27.660Z,101518.65
2023-05-22T23:42:55.791Z,101517.70
2023-05-22T23:45:23.909Z,101514.45
2023-05-22T23:47:52.165Z,101516.27
2023-05-22T23:50:20.652Z,101518.50
2023-05-22T23:52:48.856Z,101509.91
2023-05-22T23:55:17.184Z,101514.45
2023-05-22T23:57:45.385Z,101516.97
